Airfield :
LOGIN :

Register | Disclaimer

   EN    FR    IT 

 










Legend :    VFR   Marginal VFR   IFR   Intensive IFR   Very Intensive IFR
Visi :
Ceiling :
>= 8 km
>= 3000ft
5 to 8 km
1000 to 3000 ft
1500m to 5 km
500 to 1000 ft
800 to 1500m
200 to 500 ft
< 800m
< 200 ft
Symbols :   Thunderstorms  Fog  Heavy snow  Heavy precipitations  Wind > 20 kt
SIGMETs :     Misc.  Thunderstorms  Icing  Turbulence  Mountain Waves  Volcanic Ashes






- Airport Elevation : 353 ft
- IATA code : LIN


LIML - Milano Linate

CURRENT METAR :
  • 140550Z AUTO 02003KT 9999 NCD 03/M00 Q1008

EXPIRED METARs :
  • 140520Z AUTO 06005KT 9999 NCD 04/M01 Q1008
  • 140450Z AUTO 04004KT 9999 NCD 04/M01 Q1008
  • 140420Z AUTO 05004KT 9999 NCD 05/01 Q1008
  • 140350Z AUTO 06004KT 9999 NCD 04/01 Q1008
  • 140320Z AUTO 05004KT 9999 NCD 03/00 Q1008

TAF TAF LIML
Valid from the 14 at 06:00 until the 15 at 06:00 UTC


140500Z 1406/1506 VRB05KT CAVOK
BECMG 1413/1415 10010KT BKN012 BKN040
BECMG 1419/1422 13010KT 4000 RA



MET'MAP, your aeronautical weather chart ! - Copyright ORBIFLY December 2007 - Disclaimer

ORBIFLY MET'MAP TEAM :

Programming & Development : Alexandra Zaïnal
Concept & Development : Baudouin d'Aumeries
Co-Development & Prog : Marc-Olivier Méhu
Technical & hardware support : Manuel Goepfert

Contact : metmap@orbifly.com




SOURCES & CREDITS :

   NOAA